createdAt,value
2022-11-19T00:01:27.025Z,-1.90
2022-11-19T00:03:54.477Z,-1.90
2022-11-19T00:06:26.701Z,-1.90
2022-11-19T00:08:55.962Z,-1.90
2022-11-19T00:11:44.704Z,-2.00
2022-11-19T00:14:14.488Z,-2.00
2022-11-19T00:16:42.359Z,-2.00
2022-11-19T00:19:13.022Z,-2.00
2022-11-19T00:21:40.724Z,-2.00
2022-11-19T00:24:08.524Z,-2.10
2022-11-19T00:26:36.350Z,-2.10
2022-11-19T00:29:03.750Z,-2.10
2022-11-19T00:31:32.121Z,-2.00
2022-11-19T00:33:59.088Z,-2.10
2022-11-19T00:36:26.409Z,-2.10
2022-11-19T00:38:53.644Z,-2.10
2022-11-19T00:41:21.266Z,-2.10
2022-11-19T00:43:49.336Z,-2.10
2022-11-19T00:46:29.368Z,-2.10
2022-11-19T00:48:57.969Z,-2.10
2022-11-19T00:51:28.491Z,-2.10
2022-11-19T00:53:56.423Z,-2.10
2022-11-19T00:56:25.523Z,-2.10
2022-11-19T00:58:52.885Z,-2.10
2022-11-19T01:01:22.794Z,-2.10
2022-11-19T01:03:50.108Z,-2.10
2022-11-19T01:06:19.823Z,-2.10
2022-11-19T01:08:51.327Z,-2.10
2022-11-19T01:11:30.765Z,-2.10
2022-11-19T01:13:58.946Z,-2.10
2022-11-19T01:16:29.420Z,-2.10
2022-11-19T01:18:57.068Z,-2.10
2022-11-19T01:21:27.208Z,-2.10
2022-11-19T01:23:54.717Z,-2.10
2022-11-19T01:26:22.360Z,-2.10
2022-11-19T01:28:50.201Z,-2.10
2022-11-19T01:31:20.827Z,-2.10
2022-11-19T01:33:48.375Z,-2.10
2022-11-19T01:36:18.392Z,-2.10
2022-11-19T01:38:50.950Z,-2.20
2022-11-19T01:41:23.296Z,-2.20
2022-11-19T01:43:54.760Z,-2.20
2022-11-19T01:46:24.543Z,-2.30
2022-11-19T01:49:19.369Z,-2.30
2022-11-19T01:52:00.382Z,-2.30
2022-11-19T01:54:41.082Z,-2.40
2022-11-19T01:57:12.236Z,-2.40
2022-11-19T01:59:41.027Z,-2.40
2022-11-19T02:02:08.258Z,-2.40
2022-11-19T02:04:36.230Z,-2.40
2022-11-19T02:07:04.226Z,-2.40
2022-11-19T02:09:33.067Z,-2.40
2022-11-19T02:12:32.336Z,-2.40
2022-11-19T02:15:27.157Z,-2.40
2022-11-19T02:18:13.100Z,-2.40
2022-11-19T02:20:55.089Z,-2.40
2022-11-19T02:24:09.628Z,-2.40
2022-11-19T02:26:48.225Z,-2.40
2022-11-19T02:29:30.239Z,-2.40
2022-11-19T02:32:20.380Z,-2.40
2022-11-19T02:34:57.942Z,-2.40
2022-11-19T02:37:49.159Z,-2.40
2022-11-19T02:40:45.629Z,-2.40
2022-11-19T02:43:21.412Z,-2.40
2022-11-19T02:46:05.108Z,-2.40
2022-11-19T02:48:37.297Z,-2.40
2022-11-19T02:51:05.545Z,-2.40
2022-11-19T02:53:33.528Z,-2.30
2022-11-19T02:56:35.084Z,-2.30
2022-11-19T02:59:21.908Z,-2.30
2022-11-19T03:02:09.304Z,-2.20
2022-11-19T03:04:36.363Z,-2.20
2022-11-19T03:07:09.816Z,-2.20
2022-11-19T03:09:41.712Z,-2.20
2022-11-19T03:13:00.080Z,-2.20
2022-11-19T03:16:05.075Z,-2.10
2022-11-19T03:18:44.845Z,-2.10
2022-11-19T03:21:31.558Z,-2.10
2022-11-19T03:24:02.824Z,-2.00
2022-11-19T03:26:31.331Z,-2.00
2022-11-19T03:29:02.518Z,-2.00
2022-11-19T03:31:31.496Z,-2.00
2022-11-19T03:34:04.237Z,-2.00
2022-11-19T03:36:37.897Z,-2.00
2022-11-19T03:39:13.239Z,-2.00
2022-11-19T03:41:41.852Z,-2.00
2022-11-19T03:44:35.507Z,-2.10
2022-11-19T03:47:16.734Z,-2.00
2022-11-19T03:49:47.690Z,-2.00
2022-11-19T03:52:19.575Z,-2.00
2022-11-19T03:54:46.987Z,-2.00
2022-11-19T03:57:18.021Z,-2.00
2022-11-19T03:59:46.478Z,-2.00
2022-11-19T04:02:14.728Z,-2.00
2022-11-19T04:04:42.539Z,-1.90
2022-11-19T04:07:23.324Z,-1.90
2022-11-19T04:09:51.154Z,-2.00
2022-11-19T04:12:24.345Z,-2.00
2022-11-19T04:14:52.328Z,-2.00
2022-11-19T04:17:19.850Z,-2.00
2022-11-19T04:19:47.266Z,-2.00
2022-11-19T04:22:14.395Z,-1.90
2022-11-19T04:24:41.670Z,-1.90
2022-11-19T04:27:08.826Z,-1.90
2022-11-19T04:29:36.297Z,-1.90
2022-11-19T04:32:03.503Z,-1.90
2022-11-19T04:34:30.901Z,-1.90
2022-11-19T04:36:57.907Z,-1.80
2022-11-19T04:39:25.254Z,-1.80
2022-11-19T04:41:52.227Z,-1.80
2022-11-19T04:44:19.462Z,-1.70
2022-11-19T04:46:46.466Z,-1.70
2022-11-19T04:49:13.815Z,-1.70
2022-11-19T04:51:40.956Z,-1.70
2022-11-19T04:54:11.298Z,-1.70
2022-11-19T04:56:38.305Z,-1.70
2022-11-19T04:59:05.746Z,-1.70
2022-11-19T05:01:32.912Z,-1.70
2022-11-19T05:04:00.257Z,-1.70
2022-11-19T05:06:27.412Z,-1.70
2022-11-19T05:08:54.732Z,-1.70
2022-11-19T05:11:21.717Z,-1.50
2022-11-19T05:13:49.021Z,-1.70
2022-11-19T05:16:16.000Z,-1.70
2022-11-19T05:18:43.400Z,-1.70
2022-11-19T05:21:10.377Z,-1.70
2022-11-19T05:23:37.905Z,-1.70
2022-11-19T05:26:05.243Z,-1.70
2022-11-19T05:28:38.915Z,-1.70
2022-11-19T05:31:07.988Z,-1.70
2022-11-19T05:33:35.502Z,-1.70
2022-11-19T05:36:03.255Z,-1.70
2022-11-19T05:38:30.530Z,-1.70
2022-11-19T05:40:57.584Z,-1.70
2022-11-19T05:43:24.959Z,-1.70
2022-11-19T05:45:54.554Z,-1.70
2022-11-19T05:48:21.797Z,-1.70
2022-11-19T05:50:48.924Z,-1.70
2022-11-19T05:53:17.278Z,-1.70
2022-11-19T05:55:44.453Z,-1.60
2022-11-19T05:58:13.709Z,-1.60
2022-11-19T06:00:40.765Z,-1.60
2022-11-19T06:03:09.242Z,-1.60
2022-11-19T06:05:40.336Z,-1.60
2022-11-19T06:08:08.388Z,-1.50
2022-11-19T06:10:35.342Z,-1.60
2022-11-19T06:13:02.958Z,-1.60
2022-11-19T06:15:29.984Z,-1.60
2022-11-19T06:17:57.692Z,-1.50
2022-11-19T06:20:24.734Z,-1.50
2022-11-19T06:22:52.142Z,-1.60
2022-11-19T06:25:19.500Z,-1.60
2022-11-19T06:27:47.169Z,-1.60
2022-11-19T06:30:14.717Z,-1.60
2022-11-19T06:32:43.354Z,-1.60
2022-11-19T06:35:10.552Z,-1.50
2022-11-19T06:37:37.911Z,-1.50
2022-11-19T06:40:05.399Z,-1.50
2022-11-19T06:42:38.522Z,-1.60
2022-11-19T06:45:11.627Z,-1.60
2022-11-19T06:47:40.415Z,-1.60
2022-11-19T06:50:10.241Z,-1.70
2022-11-19T06:52:37.945Z,-1.60
2022-11-19T06:55:05.335Z,-1.60
2022-11-19T06:57:32.875Z,-1.50
2022-11-19T06:59:59.874Z,-1.50
2022-11-19T07:02:27.257Z,-1.50
2022-11-19T07:04:54.296Z,-1.50
2022-11-19T07:07:21.750Z,-1.40
2022-11-19T07:09:48.843Z,-1.40
2022-11-19T07:12:18.712Z,-1.40
2022-11-19T07:14:45.868Z,-1.30
2022-11-19T07:17:13.196Z,-1.30
2022-11-19T07:19:40.532Z,-1.30
2022-11-19T07:22:07.940Z,-1.30
2022-11-19T07:24:35.711Z,-1.30
2022-11-19T07:27:03.113Z,-1.40
2022-11-19T07:29:30.123Z,-1.40
2022-11-19T07:31:57.615Z,-1.40
2022-11-19T07:34:24.646Z,-1.30
2022-11-19T07:36:51.946Z,-1.30
2022-11-19T07:39:19.259Z,-1.30
2022-11-19T07:42:05.428Z,-1.20
2022-11-19T07:44:33.593Z,-1.20
2022-11-19T07:47:01.073Z,-1.10
2022-11-19T07:49:28.197Z,-1.00
2022-11-19T07:51:55.495Z,-1.00
2022-11-19T07:54:22.480Z,-1.10
2022-11-19T07:56:49.844Z,-1.00
2022-11-19T07:59:17.630Z,-1.10
2022-11-19T08:01:45.194Z,-1.10
2022-11-19T08:04:12.284Z,-1.10
2022-11-19T08:06:39.599Z,-1.00
2022-11-19T08:09:07.167Z,-1.00
2022-11-19T08:11:34.676Z,-0.90
2022-11-19T08:14:02.258Z,-0.90
2022-11-19T08:16:48.692Z,-0.80
2022-11-19T08:19:20.293Z,-0.80
2022-11-19T08:21:48.092Z,-0.80
2022-11-19T08:24:18.208Z,-0.80
2022-11-19T08:26:46.724Z,-0.70
2022-11-19T08:29:16.900Z,-0.60
2022-11-19T08:31:47.370Z,-0.50
2022-11-19T08:34:15.212Z,-0.40
2022-11-19T08:36:43.689Z,-0.50
2022-11-19T08:39:10.813Z,-0.40
2022-11-19T08:41:57.058Z,-0.40
2022-11-19T08:44:24.510Z,-0.50
2022-11-19T08:46:55.866Z,-0.70
2022-11-19T08:49:24.645Z,-0.70
2022-11-19T08:51:52.528Z,-0.60
2022-11-19T08:54:19.897Z,-0.50
2022-11-19T08:56:47.925Z,-0.40
2022-11-19T08:59:14.978Z,-0.40
2022-11-19T09:01:42.609Z,-0.30
2022-11-19T09:04:09.598Z,-0.30
2022-11-19T09:06:37.014Z,-0.20
2022-11-19T09:09:04.934Z,-0.10
2022-11-19T09:11:32.735Z,-0.10
2022-11-19T09:13:59.818Z,0.00
2022-11-19T09:16:27.821Z,0.10
2022-11-19T09:18:54.944Z,0.20
2022-11-19T09:21:22.274Z,0.10
2022-11-19T09:23:49.279Z,0.10
2022-11-19T09:26:19.064Z,0.10
2022-11-19T09:28:46.829Z,0.10
2022-11-19T09:31:16.976Z,0.10
2022-11-19T09:33:47.343Z,0.10
2022-11-19T09:36:16.011Z,0.20
2022-11-19T09:38:44.879Z,0.30
2022-11-19T09:41:26.577Z,0.40
2022-11-19T09:44:15.148Z,0.50
2022-11-19T09:47:04.171Z,0.60
2022-11-19T09:49:39.381Z,0.70
2022-11-19T09:52:12.611Z,0.70
2022-11-19T09:54:54.313Z,0.70
2022-11-19T09:57:28.603Z,0.60
2022-11-19T10:00:01.624Z,0.50
2022-11-19T10:02:39.228Z,0.40
2022-11-19T10:05:06.872Z,0.30
2022-11-19T10:08:00.944Z,0.30
2022-11-19T10:10:47.871Z,0.30
2022-11-19T10:13:37.231Z,0.20
2022-11-19T10:16:08.089Z,0.10
2022-11-19T10:19:19.539Z,0.00
2022-11-19T10:22:05.905Z,0.00
2022-11-19T10:24:53.466Z,0.00
2022-11-19T10:27:45.914Z,0.00
2022-11-19T10:30:17.458Z,0.00
2022-11-19T10:32:55.542Z,0.00
2022-11-19T10:35:29.337Z,0.00
2022-11-19T10:37:58.616Z,0.10
2022-11-19T10:40:32.903Z,0.10
2022-11-19T10:43:23.410Z,0.30
2022-11-19T10:45:50.983Z,0.40
2022-11-19T10:48:23.611Z,0.50
2022-11-19T10:50:57.141Z,0.50
2022-11-19T10:53:29.352Z,0.60
2022-11-19T10:56:00.600Z,0.70
2022-11-19T10:58:34.676Z,0.90
2022-11-19T11:01:05.353Z,1.00
2022-11-19T11:04:15.303Z,1.00
2022-11-19T11:07:04.058Z,1.00
2022-11-19T11:09:43.060Z,0.90
2022-11-19T11:12:44.003Z,0.80
2022-11-19T11:15:22.432Z,0.60
2022-11-19T11:18:04.914Z,0.50
2022-11-19T11:20:32.820Z,0.50
2022-11-19T11:23:30.139Z,0.50
2022-11-19T11:25:57.548Z,0.50
2022-11-19T11:28:25.377Z,0.50
2022-11-19T11:30:54.353Z,0.60
2022-11-19T11:33:24.435Z,0.60
2022-11-19T11:35:57.005Z,0.50
2022-11-19T11:38:26.720Z,0.40
2022-11-19T11:44:04.187Z,0.40
2022-11-19T11:46:47.741Z,0.40
2022-11-19T11:49:25.701Z,0.50
2022-11-19T11:52:11.883Z,0.60
2022-11-19T11:54:59.453Z,0.60
2022-11-19T11:57:36.145Z,0.60
2022-11-19T12:00:31.127Z,0.70
2022-11-19T12:03:02.450Z,0.80
2022-11-19T12:05:40.463Z,0.70
2022-11-19T12:08:26.885Z,0.80
2022-11-19T12:11:23.866Z,0.60
2022-11-19T12:14:10.867Z,0.60
2022-11-19T12:16:57.254Z,0.60
2022-11-19T12:19:38.315Z,0.60
2022-11-19T12:22:30.465Z,0.60
2022-11-19T12:25:07.795Z,0.50
2022-11-19T12:27:50.156Z,0.50
2022-11-19T12:30:21.227Z,0.60
2022-11-19T12:32:54.644Z,0.60
2022-11-19T12:35:51.203Z,0.50
2022-11-19T12:38:34.316Z,0.40
2022-11-19T12:41:07.091Z,0.30
2022-11-19T12:43:55.385Z,0.30
2022-11-19T12:46:39.650Z,0.30
2022-11-19T12:49:16.533Z,0.40
2022-11-19T12:52:11.048Z,0.40
2022-11-19T12:55:05.880Z,0.40
2022-11-19T12:57:40.989Z,0.40
2022-11-19T13:00:22.211Z,0.20
2022-11-19T13:03:01.047Z,0.10
2022-11-19T13:05:50.218Z,0.10
2022-11-19T13:08:26.227Z,0.10
2022-11-19T13:11:22.574Z,0.10
2022-11-19T13:13:58.597Z,0.10
2022-11-19T13:16:32.843Z,0.10
2022-11-19T13:19:33.333Z,0.10
2022-11-19T13:22:12.204Z,0.10
2022-11-19T13:24:54.084Z,0.00
2022-11-19T13:27:25.274Z,-0.10
2022-11-19T13:29:52.353Z,-0.30
2022-11-19T13:32:34.604Z,-0.20
2022-11-19T13:35:24.631Z,-0.30
2022-11-19T13:38:07.115Z,-0.40
2022-11-19T13:40:47.437Z,-0.40
2022-11-19T13:43:41.946Z,-0.40
2022-11-19T13:46:24.327Z,-0.40
2022-11-19T13:49:12.578Z,-0.40
2022-11-19T13:52:02.324Z,-0.50
2022-11-19T13:54:35.134Z,-0.40
2022-11-19T13:57:05.667Z,-0.50
2022-11-19T13:59:38.896Z,-0.50
2022-11-19T14:02:11.918Z,-0.60
2022-11-19T14:05:25.371Z,-0.70
2022-11-19T14:07:55.439Z,-0.70
2022-11-19T14:10:30.642Z,-0.60
2022-11-19T14:13:05.504Z,-0.60
2022-11-19T14:16:03.221Z,-0.70
2022-11-19T14:19:04.430Z,-0.60
2022-11-19T14:21:50.507Z,-0.50
2022-11-19T14:24:45.090Z,-0.50
2022-11-19T14:27:18.429Z,-0.50
2022-11-19T14:29:45.483Z,-0.50
2022-11-19T14:32:12.776Z,-0.50
2022-11-19T14:34:48.305Z,-0.60
2022-11-19T14:37:18.418Z,-0.60
2022-11-19T14:39:50.849Z,-0.60
2022-11-19T14:42:22.427Z,-0.60
2022-11-19T14:45:02.758Z,-0.50
2022-11-19T14:47:41.246Z,-0.60
2022-11-19T14:50:29.608Z,-0.60
2022-11-19T14:53:00.987Z,-0.70
2022-11-19T14:55:33.952Z,-0.80
2022-11-19T14:58:21.377Z,-0.90
2022-11-19T15:00:50.910Z,-1.10
2022-11-19T15:03:27.721Z,-1.20
2022-11-19T15:05:56.787Z,-1.20
2022-11-19T15:08:24.029Z,-1.30
2022-11-19T15:11:10.473Z,-1.30
2022-11-19T15:13:40.513Z,-1.40
2022-11-19T15:16:15.876Z,-1.30
2022-11-19T15:18:43.503Z,-1.40
2022-11-19T15:21:30.799Z,-1.50
2022-11-19T15:24:06.438Z,-1.50
2022-11-19T15:26:45.434Z,-1.60
2022-11-19T15:29:28.426Z,-1.60
2022-11-19T15:32:14.165Z,-1.60
2022-11-19T15:35:10.281Z,-1.70
2022-11-19T15:37:50.073Z,-1.70
2022-11-19T15:40:22.666Z,-1.70
2022-11-19T15:43:33.253Z,-1.70
2022-11-19T15:46:18.638Z,-1.80
2022-11-19T15:49:14.784Z,-2.00
2022-11-19T15:52:04.321Z,-2.10
2022-11-19T15:54:33.698Z,-2.20
2022-11-19T15:57:04.523Z,-2.10
2022-11-19T15:59:35.417Z,-2.20
2022-11-19T16:02:05.141Z,-2.20
2022-11-19T16:04:36.644Z,-2.20
2022-11-19T16:07:08.148Z,-2.20
2022-11-19T16:09:38.940Z,-2.30
2022-11-19T16:12:36.346Z,-2.30
2022-11-19T16:15:39.660Z,-2.30
2022-11-19T16:18:19.180Z,-2.30
2022-11-19T16:20:50.214Z,-2.30
2022-11-19T16:23:23.792Z,-2.30
2022-11-19T16:25:51.596Z,-2.30
2022-11-19T16:28:30.490Z,-2.30
2022-11-19T16:31:04.051Z,-2.30
2022-11-19T16:33:33.158Z,-2.30
2022-11-19T16:36:11.410Z,-2.30
2022-11-19T16:38:41.887Z,-2.30
2022-11-19T16:41:35.252Z,-2.40
2022-11-19T16:44:11.711Z,-2.40
2022-11-19T16:46:39.008Z,-2.40
2022-11-19T16:49:38.033Z,-2.40
2022-11-19T16:52:07.747Z,-2.40
2022-11-19T16:54:49.751Z,-2.40
2022-11-19T16:57:23.365Z,-2.40
2022-11-19T17:00:20.206Z,-2.40
2022-11-19T17:02:48.577Z,-2.40
2022-11-19T17:05:22.487Z,-2.50
2022-11-19T17:07:52.177Z,-2.50
2022-11-19T17:10:23.045Z,-2.50
2022-11-19T17:13:02.651Z,-2.50
2022-11-19T17:16:02.368Z,-2.50
2022-11-19T17:18:32.662Z,-2.50
2022-11-19T17:21:09.033Z,-2.50
2022-11-19T17:23:47.938Z,-2.60
2022-11-19T17:26:22.078Z,-2.50
2022-11-19T17:28:52.181Z,-2.50
2022-11-19T17:31:27.535Z,-2.50
2022-11-19T17:33:55.751Z,-2.60
2022-11-19T17:36:25.796Z,-2.60
2022-11-19T17:38:53.009Z,-2.50
2022-11-19T17:41:46.770Z,-2.50
2022-11-19T17:44:31.685Z,-2.50
2022-11-19T17:46:59.457Z,-2.50
2022-11-19T17:49:26.536Z,-2.50
2022-11-19T17:51:55.412Z,-2.50
2022-11-19T17:54:23.099Z,-2.50
2022-11-19T17:56:50.644Z,-2.50
2022-11-19T17:59:20.415Z,-2.40
2022-11-19T18:01:47.829Z,-2.50
2022-11-19T18:04:15.904Z,-2.50
2022-11-19T18:06:44.325Z,-2.50
2022-11-19T18:09:11.441Z,-2.50
2022-11-19T18:11:39.445Z,-2.50
2022-11-19T18:14:10.263Z,-2.50
2022-11-19T18:16:39.898Z,-2.30
2022-11-19T18:19:11.743Z,-2.50
2022-11-19T18:21:42.004Z,-2.40
2022-11-19T18:24:12.766Z,-2.40
2022-11-19T18:26:40.377Z,-2.40
2022-11-19T18:29:07.428Z,-2.40
2022-11-19T18:31:48.250Z,-2.40
2022-11-19T18:34:22.976Z,-2.50
2022-11-19T18:36:50.276Z,-2.40
2022-11-19T18:39:17.459Z,-2.40
2022-11-19T18:41:45.147Z,-2.40
2022-11-19T18:44:33.411Z,-2.40
2022-11-19T18:47:10.658Z,-2.40
2022-11-19T18:49:38.189Z,-2.40
2022-11-19T18:52:07.937Z,-2.40
2022-11-19T18:54:35.421Z,-2.40
2022-11-19T18:57:03.327Z,-2.30
2022-11-19T18:59:30.447Z,-2.30
2022-11-19T19:01:58.320Z,-2.30
2022-11-19T19:04:26.870Z,-2.30
2022-11-19T19:06:54.271Z,-2.30
2022-11-19T19:09:21.993Z,-2.30
2022-11-19T19:12:13.041Z,-2.30
2022-11-19T19:14:42.072Z,-2.20
2022-11-19T19:17:09.974Z,-2.20
2022-11-19T19:19:37.561Z,-2.20
2022-11-19T19:22:05.795Z,-2.30
2022-11-19T19:24:35.223Z,-2.30
2022-11-19T19:27:03.781Z,-2.30
2022-11-19T19:29:30.998Z,-2.30
2022-11-19T19:31:58.613Z,-2.30
2022-11-19T19:34:25.742Z,-2.30
2022-11-19T19:36:56.262Z,-2.30
2022-11-19T19:39:23.989Z,-2.30
2022-11-19T19:41:51.868Z,-2.30
2022-11-19T19:44:19.098Z,-2.20
2022-11-19T19:46:49.382Z,-2.20
2022-11-19T19:49:16.533Z,-2.20
2022-11-19T19:51:44.541Z,-2.20
2022-11-19T19:54:11.747Z,-2.20
2022-11-19T19:56:40.012Z,-2.20
2022-11-19T19:59:07.911Z,-2.10
2022-11-19T20:01:36.184Z,-2.10
2022-11-19T20:04:09.742Z,-2.10
2022-11-19T20:06:41.445Z,-2.10
2022-11-19T20:09:09.603Z,-2.10
2022-11-19T20:11:39.022Z,-2.20
2022-11-19T20:14:06.439Z,-2.20
2022-11-19T20:16:35.079Z,-2.20
2022-11-19T20:19:02.511Z,-2.20
2022-11-19T20:21:33.759Z,-2.10
2022-11-19T20:24:01.049Z,-2.10
2022-11-19T20:26:31.036Z,-2.10
2022-11-19T20:29:00.574Z,-2.20
2022-11-19T20:31:29.249Z,-2.10
2022-11-19T20:34:00.495Z,-2.10
2022-11-19T20:36:30.092Z,-2.20
2022-11-19T20:38:57.641Z,-2.20
2022-11-19T20:41:45.040Z,-2.20
2022-11-19T20:44:25.638Z,-2.20
2022-11-19T20:47:00.119Z,-2.20
2022-11-19T20:49:29.617Z,-2.20
2022-11-19T20:51:57.683Z,-2.20
2022-11-19T20:54:26.157Z,-2.20
2022-11-19T20:56:55.181Z,-2.20
2022-11-19T20:59:24.144Z,-2.20
2022-11-19T21:01:55.060Z,-2.20
2022-11-19T21:04:23.707Z,-2.20
2022-11-19T21:06:51.376Z,-2.20
2022-11-19T21:09:19.777Z,-2.20
2022-11-19T21:11:47.794Z,-2.20
2022-11-19T21:14:15.140Z,-2.20
2022-11-19T21:16:42.538Z,-2.20
2022-11-19T21:19:10.512Z,-2.20
2022-11-19T21:21:38.457Z,-2.20
2022-11-19T21:24:06.100Z,-2.20
2022-11-19T21:26:34.164Z,-2.20
2022-11-19T21:29:01.284Z,-2.20
2022-11-19T21:31:39.830Z,-2.20
2022-11-19T21:34:18.293Z,-2.20
2022-11-19T21:36:46.774Z,-2.20
2022-11-19T21:39:18.067Z,-2.10
2022-11-19T21:41:45.591Z,-2.10
2022-11-19T21:44:16.780Z,-2.10
2022-11-19T21:46:48.263Z,-2.10
2022-11-19T21:49:15.390Z,-2.10
2022-11-19T21:51:43.288Z,-2.10
2022-11-19T21:54:13.410Z,-2.10
2022-11-19T21:56:41.774Z,-2.10
2022-11-19T21:59:08.978Z,-2.10
2022-11-19T22:01:36.397Z,-2.00
2022-11-19T22:04:04.581Z,-2.00
2022-11-19T22:06:32.863Z,-2.00
2022-11-19T22:09:00.323Z,-2.00
2022-11-19T22:11:30.787Z,-2.00
2022-11-19T22:14:04.700Z,-2.00
2022-11-19T22:16:35.360Z,-1.90
2022-11-19T22:19:02.587Z,-2.00
2022-11-19T22:21:30.532Z,-2.00
2022-11-19T22:23:57.979Z,-1.80
2022-11-19T22:26:25.851Z,-2.00
2022-11-19T22:28:53.070Z,-2.00
2022-11-19T22:31:20.926Z,-2.00
2022-11-19T22:33:49.766Z,-1.90
2022-11-19T22:36:18.611Z,-1.90
2022-11-19T22:38:45.591Z,-1.90
2022-11-19T22:41:18.401Z,-1.90
2022-11-19T22:43:46.352Z,-1.90
2022-11-19T22:46:14.963Z,-1.90
2022-11-19T22:48:43.388Z,-1.90
2022-11-19T22:51:20.297Z,-1.90
2022-11-19T22:53:49.028Z,-1.90
2022-11-19T22:56:20.218Z,-1.90
2022-11-19T22:58:48.390Z,-1.90
2022-11-19T23:01:27.993Z,-1.90
2022-11-19T23:03:56.414Z,-1.90
2022-11-19T23:06:24.090Z,-1.80
2022-11-19T23:08:51.631Z,-1.90
2022-11-19T23:11:40.585Z,-2.00
2022-11-19T23:14:10.311Z,-2.00
2022-11-19T23:16:38.887Z,-2.10
2022-11-19T23:19:06.473Z,-2.00
2022-11-19T23:21:33.906Z,-2.00
2022-11-19T23:24:01.137Z,-2.00
2022-11-19T23:26:30.518Z,-2.10
2022-11-19T23:28:57.771Z,-2.10
2022-11-19T23:31:26.380Z,-2.10
2022-11-19T23:33:58.825Z,-2.10
2022-11-19T23:36:27.966Z,-2.10
2022-11-19T23:38:55.210Z,-2.10
2022-11-19T23:41:23.174Z,-2.10
2022-11-19T23:43:52.210Z,-2.00
2022-11-19T23:46:30.481Z,-2.10
2022-11-19T23:48:58.720Z,-2.10
2022-11-19T23:51:31.865Z,-2.10
2022-11-19T23:53:59.449Z,-2.10
2022-11-19T23:56:28.838Z,-2.10
2022-11-19T23:58:56.649Z,-2.10
